< < Back
Terminal Aerodrome Forecast


Current Version              Previous Versions:   1  2  3  4  5  6  7  8  9  

Terminal Aerodrome Forecast

849
FTUS42 KGSP 310531
TAFCLT
TAF
KCLT 310531Z 3106/0106 VRB02KT P6SM FEW250
     FM310900 01003KT 6SM BR SCT003 BKN015
     FM311300 02005KT P6SM SCT035 BKN200 PROB30 3120/0102 4SM -TSRA
      OVC025CB=

Latest METAR

566
SAUS70 KWBC 310600 RRK
MTRCLT
METAR KCLT 310552Z 35003KT 10SM FEW200 19/18 A2996 RMK AO2 SLP137
T01940178 10278 20194 58005


USA.gov is the U.S. government's official web portal to all federal, state and local government web resources and services.